Time;durP1;ratioP1;P1;durP2;ratioP2;P2;SDS_P1;SDS_P2;PMS_P1;PMS_P2;Temp;Humidity;BMP_temperature;BMP_pressure;BME280_temperature;BME280_humidity;BME280_pressure;Samples;Min_cycle;Max_cycle;Signal;HPM_P1;HPM_P2
2024/02/13 00:00:50;;;;;;;3.60;2.03;;;12.50;99.90;;;;;;5012291;28;20084;-44
2024/02/13 00:03:18;;;;;;;3.97;1.85;;;12.50;99.90;;;;;;5013282;28;20037;-44
2024/02/13 00:05:43;;;;;;;4.35;2.10;;;12.50;99.90;;;;;;5012648;28;20470;-45
2024/02/13 00:08:10;;;;;;;2.95;1.80;;;12.50;99.90;;;;;;5012097;28;20096;-46
2024/02/13 00:10:36;;;;;;;4.47;1.92;;;12.50;99.90;;;;;;5012051;28;20021;-45
2024/02/13 00:13:03;;;;;;;3.63;1.83;;;12.40;99.90;;;;;;5012897;28;20032;-45
2024/02/13 00:15:28;;;;;;;5.10;1.92;;;12.40;99.90;;;;;;5011948;28;20048;-45
2024/02/13 00:17:54;;;;;;;4.38;1.88;;;12.40;99.90;;;;;;5012954;28;20030;-45
2024/02/13 00:20:20;;;;;;;4.88;2.30;;;12.40;99.90;;;;;;5012643;28;20025;-45
2024/02/13 00:22:47;;;;;;;4.15;1.77;;;12.30;99.90;;;;;;5012345;28;20026;-43
2024/02/13 00:25:13;;;;;;;3.17;1.83;;;12.30;99.90;;;;;;5012161;28;20034;-44
2024/02/13 00:27:39;;;;;;;4.40;2.00;;;12.30;99.90;;;;;;5011991;28;20384;-44
2024/02/13 00:30:06;;;;;;;2.97;1.77;;;12.30;99.90;;;;;;5012042;28;20028;-43
2024/02/13 00:32:32;;;;;;;2.83;1.52;;;12.30;99.90;;;;;;5011882;28;20026;-45
2024/02/13 00:34:58;;;;;;;2.70;1.95;;;12.30;99.90;;;;;;5012200;28;20052;-46
2024/02/13 00:37:24;;;;;;;4.70;1.85;;;12.30;99.90;;;;;;5011850;28;20018;-45
2024/02/13 00:39:50;;;;;;;3.50;1.98;;;12.20;99.90;;;;;;5011638;28;20396;-42
2024/02/13 00:42:16;;;;;;;3.85;1.73;;;12.20;99.90;;;;;;5011907;28;20101;-45
2024/02/13 00:44:44;;;;;;;2.97;1.70;;;12.20;99.90;;;;;;5011533;28;20101;-45
2024/02/13 00:47:10;;;;;;;3.38;1.77;;;12.20;99.90;;;;;;5011581;28;20022;-45
2024/02/13 00:49:37;;;;;;;5.28;1.60;;;12.20;99.90;;;;;;5011535;28;20018;-45
2024/02/13 00:52:03;;;;;;;4.13;1.77;;;12.20;99.90;;;;;;5011534;28;20028;-45
2024/02/13 00:54:29;;;;;;;3.78;1.92;;;12.20;99.90;;;;;;5011368;28;20688;-44
2024/02/13 00:56:55;;;;;;;4.65;2.15;;;12.20;99.90;;;;;;5011620;28;20025;-45
2024/02/13 00:59:21;;;;;;;5.03;1.83;;;12.10;99.90;;;;;;5011379;28;20036;-44
2024/02/13 01:01:47;;;;;;;4.13;1.55;;;12.10;99.90;;;;;;5011549;28;20068;-44
2024/02/13 01:04:12;;;;;;;3.10;1.48;;;12.10;99.90;;;;;;5011473;28;20026;-44
2024/02/13 01:06:38;;;;;;;3.53;1.48;;;12.10;99.90;;;;;;5014503;28;20067;-44
2024/02/13 01:09:05;;;;;;;2.88;1.42;;;12.10;99.90;;;;;;5015282;28;20022;-45
2024/02/13 01:11:35;;;;;;;3.13;1.58;;;12.10;99.90;;;;;;5015639;28;20030;-44
2024/02/13 01:14:04;;;;;;;3.33;1.60;;;12.10;99.90;;;;;;5015557;28;20030;-42
2024/02/13 01:16:30;;;;;;;3.85;1.63;;;12.00;99.90;;;;;;5015739;28;20049;-44
2024/02/13 01:19:00;;;;;;;2.90;1.50;;;12.00;99.90;;;;;;5016008;28;20026;-44
2024/02/13 01:21:26;;;;;;;3.55;1.50;;;12.00;99.90;;;;;;5015530;28;20037;-40
2024/02/13 01:23:52;;;;;;;2.42;1.50;;;12.00;99.90;;;;;;5015624;28;20026;-43
2024/02/13 01:26:21;;;;;;;2.58;1.42;;;12.00;99.90;;;;;;5014302;28;20034;-43
2024/02/13 01:28:47;;;;;;;4.53;1.85;;;12.00;99.90;;;;;;5014913;28;20088;-44
2024/02/13 01:31:13;;;;;;;3.15;1.48;;;12.00;99.90;;;;;;5015302;28;20503;-42
2024/02/13 01:33:40;;;;;;;2.78;1.38;;;12.00;99.90;;;;;;5015081;28;20034;-39
2024/02/13 01:36:06;;;;;;;1.80;1.27;;;12.00;99.90;;;;;;5015003;28;20026;-44
2024/02/13 01:38:32;;;;;;;4.20;1.60;;;11.90;99.90;;;;;;5014906;28;20396;-43
2024/02/13 01:40:58;;;;;;;3.40;1.58;;;12.00;99.90;;;;;;5015003;28;20032;-44
2024/02/13 01:43:25;;;;;;;3.88;1.40;;;11.90;99.90;;;;;;5015308;28;20117;-44
2024/02/13 01:45:56;;;;;;;3.15;1.42;;;11.90;99.90;;;;;;5015167;28;20105;-44
2024/02/13 01:48:24;;;;;;;3.65;1.85;;;11.90;99.90;;;;;;5015000;28;20026;-45
2024/02/13 01:50:50;;;;;;;2.63;1.38;;;11.90;99.90;;;;;;5014693;28;20060;-44
2024/02/13 01:53:18;;;;;;;3.28;1.40;;;11.90;99.90;;;;;;5014661;28;20061;-45
2024/02/13 01:55:45;;;;;;;4.15;1.55;;;11.90;99.90;;;;;;5014634;28;20037;-44
2024/02/13 01:58:12;;;;;;;2.50;1.30;;;11.90;99.90;;;;;;5014774;28;20022;-44
2024/02/13 02:00:38;;;;;;;2.03;1.27;;;11.90;99.90;;;;;;5014584;28;20456;-43
2024/02/13 02:03:04;;;;;;;5.00;1.38;;;11.90;99.90;;;;;;5014354;28;20061;-45
2024/02/13 02:05:31;;;;;;;2.08;1.20;;;11.90;99.90;;;;;;5014836;28;20080;-45
2024/02/13 02:07:58;;;;;;;3.42;1.52;;;11.80;99.90;;;;;;5014649;28;20383;-44
2024/02/13 02:10:24;;;;;;;3.45;1.73;;;11.80;99.90;;;;;;5014490;28;20492;-45
2024/02/13 02:12:50;;;;;;;3.35;1.30;;;11.80;99.90;;;;;;5014575;28;20029;-45
2024/02/13 02:15:16;;;;;;;3.22;1.38;;;11.80;99.90;;;;;;5014336;28;20097;-45
2024/02/13 02:17:52;;;;;;;2.33;1.38;;;11.80;99.90;;;;;;5013175;28;20106;-45
2024/02/13 02:20:24;;;;;;;2.85;1.60;;;11.80;99.90;;;;;;5014360;28;20117;-45
2024/02/13 02:22:50;;;;;;;2.65;1.20;;;11.80;99.90;;;;;;5014181;28;20041;-43
2024/02/13 02:25:18;;;;;;;2.08;1.20;;;11.80;99.90;;;;;;5013927;28;20396;-43
2024/02/13 02:27:44;;;;;;;3.60;1.55;;;11.80;99.90;;;;;;5013896;28;20079;-44
2024/02/13 02:30:10;;;;;;;4.38;1.50;;;11.70;99.90;;;;;;5013670;28;20033;-45
2024/02/13 02:32:36;;;;;;;3.97;1.60;;;11.80;99.90;;;;;;5014187;28;20030;-42
2024/02/13 02:35:02;;;;;;;2.80;1.30;;;11.70;99.90;;;;;;5014479;28;20034;-44
2024/02/13 02:37:27;;;;;;;2.80;1.50;;;11.80;99.90;;;;;;5015084;28;20033;-43
2024/02/13 02:39:53;;;;;;;3.25;1.33;;;11.70;99.90;;;;;;5014069;28;20025;-45
2024/02/13 02:42:18;;;;;;;2.08;1.15;;;11.70;99.90;;;;;;5014510;28;20021;-45
2024/02/13 02:44:44;;;;;;;2.88;1.23;;;11.70;99.90;;;;;;5014827;28;20392;-44
2024/02/13 02:47:11;;;;;;;3.00;1.13;;;11.70;99.90;;;;;;5015228;28;20037;-45
2024/02/13 02:49:37;;;;;;;2.88;1.38;;;11.70;99.90;;;;;;5014027;28;20025;-44
2024/02/13 02:52:09;;;;;;;2.15;1.30;;;11.70;99.90;;;;;;5013865;28;20030;-45
2024/02/13 02:54:36;;;;;;;2.72;1.30;;;11.70;99.90;;;;;;5014863;28;20097;-44
2024/02/13 02:57:05;;;;;;;1.85;1.17;;;11.70;99.90;;;;;;5013701;28;20017;-43
2024/02/13 02:59:31;;;;;;;3.20;1.50;;;11.70;99.90;;;;;;5013444;28;20034;-44
2024/02/13 03:01:57;;;;;;;2.00;1.00;;;11.70;99.90;;;;;;5014340;28;20420;-45
2024/02/13 03:04:22;;;;;;;2.28;1.30;;;11.70;99.90;;;;;;5013468;28;20029;-44
2024/02/13 03:06:48;;;;;;;2.33;1.08;;;11.60;99.90;;;;;;5014914;28;20089;-45
2024/02/13 03:09:14;;;;;;;2.88;1.45;;;11.70;99.90;;;;;;5013478;28;20080;-44
2024/02/13 03:11:41;;;;;;;2.20;1.35;;;11.60;99.90;;;;;;5013153;28;20026;-44
2024/02/13 03:14:09;;;;;;;2.83;1.30;;;11.70;99.90;;;;;;5013343;28;20499;-42
2024/02/13 03:16:35;;;;;;;2.58;1.20;;;11.60;99.90;;;;;;5013028;28;20045;-44
2024/02/13 03:19:05;;;;;;;2.53;1.10;;;11.60;99.90;;;;;;5013106;28;20021;-42
2024/02/13 03:21:32;;;;;;;2.63;1.23;;;11.60;99.90;;;;;;5012958;28;20029;-41
2024/02/13 03:23:57;;;;;;;1.85;1.10;;;11.60;99.90;;;;;;5012985;28;20035;-45
2024/02/13 03:26:23;;;;;;;1.35;0.98;;;11.60;99.90;;;;;;5012739;28;20156;-44
2024/02/13 03:28:50;;;;;;;2.28;1.13;;;11.60;99.90;;;;;;5012681;28;20022;-45
2024/02/13 03:31:16;;;;;;;2.38;1.23;;;11.50;99.90;;;;;;5013580;28;20049;-42
2024/02/13 03:33:41;;;;;;;2.13;1.00;;;11.50;99.90;;;;;;5013530;28;20392;-45
2024/02/13 03:36:07;;;;;;;2.00;0.80;;;11.60;99.90;;;;;;5013836;28;20025;-42
2024/02/13 03:38:33;;;;;;;2.42;0.98;;;11.50;99.90;;;;;;5012831;28;20180;-44
2024/02/13 03:40:59;;;;;;;2.50;1.00;;;11.50;99.90;;;;;;5013366;28;20022;-44
2024/02/13 03:43:25;;;;;;;2.08;1.13;;;11.50;99.90;;;;;;5013124;28;20511;-45
2024/02/13 03:45:52;;;;;;;1.95;0.88;;;11.50;99.90;;;;;;5013120;28;20026;-43
2024/02/13 03:48:18;;;;;;;4.20;1.50;;;11.50;99.90;;;;;;5012921;28;20017;-41
2024/02/13 03:50:44;;;;;;;3.30;1.40;;;11.50;99.90;;;;;;5012432;28;20109;-45
2024/02/13 03:53:09;;;;;;;3.10;1.02;;;11.50;99.90;;;;;;5012495;28;20109;-45
2024/02/13 03:55:35;;;;;;;2.58;1.33;;;11.50;99.90;;;;;;5012396;28;20088;-45
2024/02/13 03:58:01;;;;;;;1.50;0.90;;;11.50;99.90;;;;;;5012289;28;20384;-43
2024/02/13 04:00:26;;;;;;;2.03;1.10;;;11.50;99.90;;;;;;5012267;28;20045;-45
2024/02/13 04:02:52;;;;;;;2.28;1.15;;;11.50;99.90;;;;;;5012240;28;20022;-44
2024/02/13 04:05:18;;;;;;;1.90;0.90;;;11.50;99.90;;;;;;5012176;28;20022;-44
2024/02/13 04:07:44;;;;;;;2.45;1.20;;;11.50;99.90;;;;;;5013388;28;20030;-45
2024/02/13 04:10:11;;;;;;;2.47;1.13;;;11.50;99.90;;;;;;5012821;28;20088;-45
2024/02/13 04:12:37;;;;;;;3.50;1.15;;;11.50;99.90;;;;;;5013195;28;20076;-45
2024/02/13 04:15:03;;;;;;;1.70;0.95;;;11.50;99.90;;;;;;5012163;28;20022;-44
2024/02/13 04:17:29;;;;;;;1.48;0.90;;;11.40;99.90;;;;;;5011949;28;20435;-44
2024/02/13 04:19:54;;;;;;;1.75;1.00;;;11.40;99.90;;;;;;5012342;28;20305;-45
2024/02/13 04:22:20;;;;;;;3.35;1.27;;;11.50;99.90;;;;;;5012554;28;20112;-40
2024/02/13 04:24:46;;;;;;;1.77;0.93;;;11.40;99.90;;;;;;5012356;28;20070;-44
2024/02/13 04:27:11;;;;;;;1.73;0.93;;;11.40;99.90;;;;;;5012504;28;20104;-44
2024/02/13 04:29:41;;;;;;;1.40;0.88;;;11.40;99.90;;;;;;5012016;28;20018;-45
2024/02/13 04:32:07;;;;;;;1.88;0.90;;;11.40;99.90;;;;;;5011997;28;20014;-43
2024/02/13 04:34:32;;;;;;;2.35;1.10;;;11.40;99.90;;;;;;5011673;28;20041;-43
2024/02/13 04:37:00;;;;;;;1.60;0.90;;;11.40;99.90;;;;;;5012432;28;20026;-45
2024/02/13 04:39:25;;;;;;;1.85;0.90;;;11.40;99.90;;;;;;5012495;28;20033;-45
2024/02/13 04:41:51;;;;;;;2.80;1.02;;;11.40;99.90;;;;;;5012231;28;20029;-45
2024/02/13 04:44:17;;;;;;;2.60;0.90;;;11.40;99.90;;;;;;5011192;28;20361;-45
2024/02/13 04:46:42;;;;;;;2.70;1.08;;;11.40;99.90;;;;;;5012072;28;20104;-44
2024/02/13 04:49:09;;;;;;;1.02;0.80;;;11.40;99.90;;;;;;5011867;28;20065;-45
2024/02/13 04:51:34;;;;;;;2.35;1.00;;;11.40;99.90;;;;;;5011968;28;20076;-44
2024/02/13 04:54:00;;;;;;;2.47;1.10;;;11.30;99.90;;;;;;5011586;28;20033;-45
2024/02/13 04:56:26;;;;;;;3.80;1.10;;;11.30;99.90;;;;;;5011713;28;20057;-44
2024/02/13 04:58:55;;;;;;;2.60;1.15;;;11.30;99.90;;;;;;5012432;28;20345;-45
2024/02/13 05:01:25;;;;;;;1.75;1.02;;;11.30;99.90;;;;;;5011719;28;20037;-43
2024/02/13 05:09:04;;;;;;;1.65;0.80;;;11.30;99.90;;;;;;5011828;28;20040;-44
2024/02/13 05:11:30;;;;;;;2.58;0.90;;;11.40;99.90;;;;;;5011944;28;20029;-44
2024/02/13 05:13:59;;;;;;;1.88;1.02;;;11.30;99.90;;;;;;5012276;28;20030;-45
2024/02/13 05:16:26;;;;;;;2.10;1.02;;;11.30;99.90;;;;;;5011260;28;20093;-45
2024/02/13 05:18:52;;;;;;;3.03;1.00;;;11.30;99.90;;;;;;5012528;28;20026;-45
2024/02/13 05:21:20;;;;;;;3.42;0.90;;;11.30;99.90;;;;;;5012607;28;20542;-44
2024/02/13 05:23:49;;;;;;;2.13;1.10;;;11.30;99.90;;;;;;5012125;28;20053;-44
2024/02/13 05:26:17;;;;;;;1.75;0.90;;;11.30;99.90;;;;;;5012155;28;20503;-44
2024/02/13 05:28:44;;;;;;;1.40;0.80;;;11.30;99.90;;;;;;5011718;28;20018;-44
2024/02/13 05:31:10;;;;;;;2.08;0.85;;;11.30;99.90;;;;;;5011982;28;20061;-44
2024/02/13 05:33:36;;;;;;;3.17;1.00;;;11.30;99.90;;;;;;5011737;28;20026;-44
2024/02/13 05:36:03;;;;;;;1.63;0.98;;;11.30;99.90;;;;;;5013087;28;20476;-44
2024/02/13 05:38:35;;;;;;;4.20;0.80;;;11.20;99.90;;;;;;5012036;28;20029;-45
2024/02/13 05:41:04;;;;;;;1.83;0.82;;;11.20;99.90;;;;;;5013002;28;20076;-45
2024/02/13 05:43:30;;;;;;;1.83;0.93;;;11.30;99.90;;;;;;5011074;28;20038;-45
2024/02/13 05:45:56;;;;;;;1.35;0.80;;;11.20;99.90;;;;;;5011198;28;20040;-45
2024/02/13 05:48:22;;;;;;;1.25;0.88;;;11.20;99.90;;;;;;5011180;28;20048;-44
2024/02/13 05:50:50;;;;;;;2.10;0.90;;;11.20;99.90;;;;;;5011450;28;20022;-45
2024/02/13 05:53:16;;;;;;;1.73;1.00;;;11.20;99.90;;;;;;5015319;28;20480;-44
2024/02/13 05:55:42;;;;;;;1.67;0.82;;;11.20;99.90;;;;;;5014725;28;20030;-44
2024/02/13 05:58:08;;;;;;;2.58;0.95;;;11.20;99.90;;;;;;5014753;28;20022;-44
2024/02/13 06:00:34;;;;;;;1.45;0.80;;;11.20;99.90;;;;;;5014477;28;20084;-45
2024/02/13 06:03:00;;;;;;;2.03;0.82;;;11.20;99.90;;;;;;5014639;28;20029;-45
2024/02/13 06:05:27;;;;;;;1.90;0.98;;;11.20;99.90;;;;;;5014746;28;20034;-44
2024/02/13 06:07:53;;;;;;;2.63;1.08;;;11.20;99.90;;;;;;5014788;28;20029;-44
2024/02/13 06:10:19;;;;;;;1.30;0.68;;;11.20;99.90;;;;;;5014349;28;20484;-43
2024/02/13 06:12:48;;;;;;;1.85;1.02;;;11.20;99.90;;;;;;5014437;28;20099;-44
2024/02/13 06:15:13;;;;;;;2.28;1.00;;;11.20;99.90;;;;;;5014120;28;20029;-44
2024/02/13 06:17:43;;;;;;;1.88;0.95;;;11.20;99.90;;;;;;5014178;28;20022;-44
2024/02/13 06:20:12;;;;;;;2.25;0.90;;;11.20;99.90;;;;;;5014650;28;20018;-45
2024/02/13 06:22:38;;;;;;;1.70;0.93;;;11.20;99.90;;;;;;5015223;28;20014;-45
2024/02/13 06:25:05;;;;;;;2.67;1.15;;;11.20;99.90;;;;;;5014058;28;20037;-44
2024/02/13 06:27:32;;;;;;;2.42;0.93;;;11.10;99.90;;;;;;5014148;28;20392;-45
2024/02/13 06:29:58;;;;;;;1.58;0.90;;;11.20;99.90;;;;;;5013889;28;20026;-44
2024/02/13 06:32:24;;;;;;;1.92;1.00;;;11.10;99.90;;;;;;5014257;28;20026;-45
2024/02/13 06:34:52;;;;;;;2.25;0.68;;;11.20;99.90;;;;;;5013829;28;20037;-44
2024/02/13 06:37:18;;;;;;;3.63;1.27;;;11.10;99.90;;;;;;5013870;28;20040;-45
2024/02/13 06:39:44;;;;;;;1.50;0.90;;;11.20;99.90;;;;;;5013827;28;20018;-45
2024/02/13 06:42:09;;;;;;;2.60;1.00;;;11.20;99.90;;;;;;5013659;28;20112;-45
2024/02/13 06:44:36;;;;;;;3.80;1.60;;;11.20;99.90;;;;;;5013676;28;20033;-44
2024/02/13 06:47:06;;;;;;;2.13;1.10;;;11.20;99.90;;;;;;5013960;28;20025;-44
2024/02/13 06:49:32;;;;;;;1.95;0.80;;;11.20;99.90;;;;;;5013714;28;20029;-45
2024/02/13 06:51:58;;;;;;;1.75;1.08;;;11.20;99.90;;;;;;5013744;28;20380;-42
2024/02/13 06:54:24;;;;;;;2.17;1.20;;;11.20;99.90;;;;;;5013935;28;20032;-44
2024/02/13 06:56:51;;;;;;;2.22;1.25;;;11.20;99.90;;;;;;5014274;28;20109;-44
2024/02/13 06:59:16;;;;;;;1.95;1.23;;;11.20;99.90;;;;;;5014245;28;20381;-45
2024/02/13 07:01:42;;;;;;;2.50;1.50;;;11.20;99.90;;;;;;5013933;28;20032;-45
2024/02/13 07:04:08;;;;;;;2.67;1.30;;;11.30;99.90;;;;;;5013179;28;20077;-44
2024/02/13 07:06:33;;;;;;;2.28;1.35;;;11.30;99.90;;;;;;5013637;28;20033;-43
2024/02/13 07:08:59;;;;;;;1.50;1.10;;;11.30;99.90;;;;;;5013390;28;20026;-45
2024/02/13 07:11:25;;;;;;;2.53;1.13;;;11.40;99.90;;;;;;5013241;28;20029;-44
2024/02/13 07:13:50;;;;;;;1.40;0.88;;;11.40;99.90;;;;;;5013394;28;20034;-43
2024/02/13 07:16:16;;;;;;;2.60;1.30;;;11.50;99.90;;;;;;5014189;28;20033;-45
2024/02/13 07:18:43;;;;;;;2.80;1.33;;;11.50;99.90;;;;;;5013795;28;20033;-45
2024/02/13 07:21:08;;;;;;;3.97;1.30;;;11.60;99.90;;;;;;5012176;28;20108;-42
2024/02/13 07:23:34;;;;;;;1.92;1.27;;;11.70;99.90;;;;;;5013563;28;20113;-45
2024/02/13 07:26:00;;;;;;;1.92;1.20;;;11.80;99.90;;;;;;5013315;28;20038;-44
2024/02/13 07:28:27;;;;;;;3.00;1.33;;;11.90;99.90;;;;;;5012822;28;20025;-43
2024/02/13 07:30:53;;;;;;;2.72;1.70;;;11.90;99.90;;;;;;5012888;28;20028;-45
2024/02/13 07:33:19;;;;;;;1.58;1.17;;;12.10;99.90;;;;;;5013102;28;20029;-42
2024/02/13 07:35:45;;;;;;;4.38;1.30;;;12.10;99.90;;;;;;5012675;28;20030;-45
2024/02/13 07:38:11;;;;;;;2.40;1.55;;;12.20;99.90;;;;;;5012759;28;20033;-45
2024/02/13 07:40:36;;;;;;;1.77;1.15;;;12.30;99.90;;;;;;5012608;28;20550;-44
2024/02/13 07:43:02;;;;;;;2.80;1.23;;;12.40;99.90;;;;;;5012623;28;20026;-44
2024/02/13 07:45:28;;;;;;;1.85;1.15;;;12.50;99.90;;;;;;5012642;28;20052;-45
2024/02/13 07:47:54;;;;;;;1.67;1.25;;;12.60;99.90;;;;;;5012692;28;20427;-44
2024/02/13 07:50:21;;;;;;;2.45;1.10;;;12.70;99.90;;;;;;5012605;28;20018;-43
2024/02/13 07:52:47;;;;;;;2.50;1.15;;;12.70;99.90;;;;;;5012515;28;20033;-45
2024/02/13 07:55:14;;;;;;;2.08;1.30;;;12.90;99.90;;;;;;5012398;28;20045;-44
2024/02/13 07:57:39;;;;;;;2.00;1.10;;;13.00;99.90;;;;;;5012335;28;20025;-44
2024/02/13 08:00:06;;;;;;;1.83;1.10;;;13.10;99.90;;;;;;5012476;28;20030;-44
2024/02/13 08:02:32;;;;;;;2.25;1.17;;;13.10;99.90;;;;;;5012483;28;20113;-43
2024/02/13 08:04:59;;;;;;;2.90;1.17;;;13.30;99.90;;;;;;5012484;28;20105;-43
2024/02/13 08:07:27;;;;;;;2.30;1.13;;;13.30;99.90;;;;;;5012260;28;20026;-45
2024/02/13 08:09:54;;;;;;;5.55;1.50;;;13.50;99.90;;;;;;5012187;28;20025;-44
2024/02/13 08:12:20;;;;;;;5.57;1.30;;;13.50;99.50;;;;;;5012937;28;20068;-45
2024/02/13 08:14:45;;;;;;;4.90;1.50;;;13.60;99.20;;;;;;5012021;28;20419;-45
2024/02/13 08:17:12;;;;;;;4.32;1.48;;;13.70;99.00;;;;;;5012458;28;20040;-45
2024/02/13 08:19:40;;;;;;;3.80;1.55;;;13.80;98.90;;;;;;5012117;28;20481;-44
2024/02/13 08:22:07;;;;;;;3.28;1.30;;;13.90;98.80;;;;;;5012192;28;20558;-44
2024/02/13 08:24:34;;;;;;;2.80;1.65;;;14.00;98.80;;;;;;5012797;28;20121;-44
2024/02/13 08:27:00;;;;;;;2.85;1.40;;;14.10;98.80;;;;;;5012631;28;20444;-43
2024/02/13 08:29:26;;;;;;;2.60;1.38;;;14.20;98.70;;;;;;5010861;28;20056;-45
2024/02/13 08:31:52;;;;;;;2.70;1.42;;;14.30;98.60;;;;;;5011835;28;20018;-44
2024/02/13 08:34:18;;;;;;;7.53;1.48;;;14.40;98.60;;;;;;5011766;28;20096;-44
2024/02/13 08:36:45;;;;;;;3.30;1.40;;;14.50;98.50;;;;;;5012328;28;20129;-44
2024/02/13 08:39:11;;;;;;;2.53;1.30;;;14.60;98.30;;;;;;5012645;28;20026;-44
2024/02/13 08:41:37;;;;;;;3.47;1.35;;;14.70;98.20;;;;;;5011756;28;20495;-43
2024/02/13 08:44:03;;;;;;;2.35;1.10;;;14.80;98.10;;;;;;5013552;28;20072;-44
2024/02/13 08:46:30;;;;;;;2.83;1.10;;;14.90;97.90;;;;;;5010167;28;20048;-44
2024/02/13 08:48:56;;;;;;;3.90;1.30;;;15.00;97.80;;;;;;5011554;28;20510;-44
2024/02/13 08:51:26;;;;;;;1.80;1.13;;;15.10;97.60;;;;;;5012787;28;20053;-44
2024/02/13 08:53:52;;;;;;;3.72;1.27;;;15.20;97.60;;;;;;5013355;28;20022;-44
2024/02/13 08:56:18;;;;;;;3.28;1.27;;;15.20;97.50;;;;;;5012513;28;20121;-43
2024/02/13 08:58:44;;;;;;;2.50;1.00;;;15.30;97.70;;;;;;5012106;28;20125;-42
2024/02/13 09:01:09;;;;;;;3.95;1.02;;;15.40;97.20;;;;;;5011620;28;20018;-43
2024/02/13 09:03:35;;;;;;;3.13;0.98;;;15.50;97.20;;;;;;5011660;28;20038;-44
2024/02/13 09:06:04;;;;;;;3.65;1.40;;;15.60;97.10;;;;;;5012243;28;20108;-44
2024/02/13 09:08:36;;;;;;;1.88;1.02;;;15.60;97.00;;;;;;5011378;28;20386;-44
2024/02/13 09:11:01;;;;;;;2.10;1.02;;;15.70;96.90;;;;;;5012783;28;20506;-45
2024/02/13 09:13:28;;;;;;;3.22;1.20;;;15.80;96.80;;;;;;5011525;28;20026;-45
2024/02/13 09:15:55;;;;;;;3.78;1.20;;;15.90;96.80;;;;;;5011406;28;20601;-45
2024/02/13 09:18:21;;;;;;;2.40;1.08;;;16.00;96.70;;;;;;5011178;28;20476;-45
2024/02/13 09:20:47;;;;;;;1.77;1.00;;;16.10;96.60;;;;;;5011238;28;20516;-45
2024/02/13 09:23:14;;;;;;;2.30;1.00;;;16.20;96.50;;;;;;5011413;28;20061;-44
2024/02/13 09:25:40;;;;;;;2.30;1.10;;;16.30;96.40;;;;;;5011729;28;20018;-45
2024/02/13 09:28:08;;;;;;;2.10;0.82;;;16.30;96.40;;;;;;5016028;28;20018;-44
2024/02/13 09:30:33;;;;;;;4.45;0.98;;;16.40;96.20;;;;;;5016053;28;20030;-44
2024/02/13 09:32:59;;;;;;;1.80;1.02;;;16.50;96.10;;;;;;5014930;28;20022;-44
2024/02/13 09:35:25;;;;;;;2.55;1.08;;;16.60;96.00;;;;;;5015598;28;20488;-45
2024/02/13 09:37:50;;;;;;;3.47;0.82;;;16.70;95.90;;;;;;5015399;28;20030;-44
2024/02/13 09:40:18;;;;;;;1.63;1.00;;;16.80;95.80;;;;;;5015891;28;20045;-44
2024/02/13 09:42:45;;;;;;;1.63;0.90;;;16.90;95.70;;;;;;5015912;28;20030;-44
2024/02/13 09:45:13;;;;;;;2.40;1.10;;;16.90;95.50;;;;;;5016016;28;20029;-44
2024/02/13 09:47:40;;;;;;;1.65;0.82;;;17.00;95.40;;;;;;5015348;28;20018;-44
2024/02/13 09:50:12;;;;;;;2.85;0.90;;;17.10;95.30;;;;;;5014568;28;20484;-43
2024/02/13 09:52:54;;;;;;;1.40;0.88;;;17.20;95.20;;;;;;5016011;28;20025;-45
2024/02/13 09:55:21;;;;;;;3.55;1.10;;;17.30;95.10;;;;;;5015314;28;20152;-43
2024/02/13 09:57:51;;;;;;;1.30;0.70;;;17.40;95.00;;;;;;5014532;28;20037;-42
2024/02/13 10:00:18;;;;;;;1.98;1.02;;;17.40;94.90;;;;;;5014422;28;20085;-43
2024/02/13 10:02:45;;;;;;;2.70;1.27;;;17.50;94.80;;;;;;5014695;28;20079;-45
2024/02/13 10:05:11;;;;;;;1.52;0.73;;;17.60;94.70;;;;;;5014465;28;20439;-44
2024/02/13 10:07:41;;;;;;;3.03;1.25;;;17.70;94.60;;;;;;5014234;28;20562;-43
2024/02/13 10:10:11;;;;;;;1.88;0.98;;;17.80;94.50;;;;;;5014717;28;20049;-44
2024/02/13 10:12:55;;;;;;;1.42;0.70;;;17.80;94.30;;;;;;5015332;28;20389;-43
2024/02/13 10:15:21;;;;;;;1.88;0.90;;;17.90;94.20;;;;;;5015025;28;20396;-44
2024/02/13 10:17:49;;;;;;;2.28;0.90;;;17.90;94.10;;;;;;5014233;28;20018;-44
2024/02/13 10:20:17;;;;;;;2.03;0.90;;;18.00;94.30;;;;;;5015179;28;20132;-44
2024/02/13 10:22:51;;;;;;;5.13;1.05;;;18.10;93.80;;;;;;5014989;28;20144;-42
2024/02/13 10:25:25;;;;;;;2.20;0.98;;;18.10;93.70;;;;;;5015378;28;20026;-42
2024/02/13 10:27:53;;;;;;;1.30;0.80;;;18.10;93.60;;;;;;5014781;28;20105;-43
2024/02/13 10:30:27;;;;;;;2.05;0.80;;;18.20;93.50;;;;;;5013978;28;20034;-44
2024/02/13 10:32:53;;;;;;;1.33;0.85;;;18.20;93.40;;;;;;5014072;28;20025;-44
2024/02/13 10:35:22;;;;;;;1.25;0.70;;;18.20;93.40;;;;;;5013897;28;20022;-44
2024/02/13 10:37:49;;;;;;;3.13;0.80;;;18.20;93.30;;;;;;5014106;28;20372;-44
2024/02/13 10:40:20;;;;;;;1.70;0.85;;;18.30;93.30;;;;;;5015039;28;20388;-45
2024/02/13 10:42:46;;;;;;;2.15;0.80;;;18.30;93.30;;;;;;5013796;28;20496;-43
2024/02/13 10:45:14;;;;;;;1.70;0.68;;;18.30;93.20;;;;;;5013753;28;20057;-44
2024/02/13 10:47:49;;;;;;;1.50;0.75;;;18.30;93.20;;;;;;5014126;28;20034;-44
2024/02/13 10:50:15;;;;;;;1.77;0.80;;;18.30;93.20;;;;;;5015226;28;20104;-43
2024/02/13 10:52:41;;;;;;;1.77;0.70;;;18.40;93.20;;;;;;5013738;28;20018;-44
2024/02/13 10:55:10;;;;;;;1.45;0.65;;;18.40;93.10;;;;;;5013605;28;20103;-44
2024/02/13 10:57:38;;;;;;;1.00;0.70;;;18.40;93.10;;;;;;5013511;28;20057;-45
2024/02/13 11:00:14;;;;;;;1.88;0.90;;;18.40;93.50;;;;;;5013350;28;20029;-43
2024/02/13 11:02:43;;;;;;;1.35;0.70;;;18.50;93.10;;;;;;5013814;28;20030;-45
2024/02/13 11:05:10;;;;;;;1.27;0.70;;;18.60;93.10;;;;;;5013293;28;20053;-44
2024/02/13 11:07:36;;;;;;;0.80;0.43;;;18.70;92.90;;;;;;5013152;28;20071;-44
2024/02/13 11:10:05;;;;;;;1.55;0.65;;;18.80;92.80;;;;;;5013457;28;20060;-45
2024/02/13 11:12:33;;;;;;;0.80;0.60;;;18.90;92.70;;;;;;5013537;28;20018;-45
2024/02/13 11:15:19;;;;;;;1.30;0.65;;;19.00;92.60;;;;;;5013852;28;20025;-45
2024/02/13 11:17:45;;;;;;;2.03;0.88;;;19.10;92.60;;;;;;5013179;28;20030;-45
2024/02/13 11:20:14;;;;;;;3.85;0.90;;;19.10;92.50;;;;;;5013026;28;20490;-45
2024/02/13 11:22:44;;;;;;;1.33;0.60;;;19.20;92.40;;;;;;5013046;28;20029;-44
2024/02/13 11:25:12;;;;;;;1.95;0.80;;;19.20;92.40;;;;;;5013036;28;20025;-44
2024/02/13 11:27:40;;;;;;;1.35;0.65;;;19.30;92.30;;;;;;5012889;28;20105;-44
2024/02/13 11:30:08;;;;;;;0.85;0.40;;;19.40;92.30;;;;;;5012883;28;20075;-44
2024/02/13 11:32:36;;;;;;;1.20;0.60;;;19.40;92.20;;;;;;5012892;28;20041;-44
2024/02/13 11:35:07;;;;;;;2.28;0.90;;;19.50;92.10;;;;;;5012611;28;20029;-44
2024/02/13 11:37:34;;;;;;;1.63;0.75;;;19.60;92.10;;;;;;5012777;28;20022;-44
2024/02/13 11:40:05;;;;;;;1.88;0.63;;;19.60;92.40;;;;;;5012869;28;20496;-44
2024/02/13 11:42:33;;;;;;;1.90;0.70;;;19.70;91.90;;;;;;5015373;28;20030;-44
2024/02/13 11:45:00;;;;;;;1.95;0.75;;;19.80;91.70;;;;;;5014823;28;20480;-44
2024/02/13 11:47:26;;;;;;;2.78;0.63;;;19.90;91.60;;;;;;5013107;28;20438;-43
2024/02/13 11:49:52;;;;;;;0.80;0.60;;;19.90;91.40;;;;;;5012953;28;20072;-43
2024/02/13 11:52:19;;;;;;;1.42;0.60;;;20.00;91.40;;;;;;5013506;28;20029;-44
2024/02/13 11:54:46;;;;;;;1.45;0.70;;;20.00;91.30;;;;;;5012754;28;20149;-44
2024/02/13 11:57:19;;;;;;;1.85;0.60;;;20.00;91.10;;;;;;5012558;28;20028;-44
2024/02/13 11:59:58;;;;;;;0.85;0.45;;;20.10;91.10;;;;;;5012430;28;20027;-44
2024/02/13 12:02:24;;;;;;;2.63;0.70;;;20.10;91.00;;;;;;5013967;28;20516;-44
2024/02/13 12:04:49;;;;;;;1.88;0.70;;;20.10;90.90;;;;;;5010835;28;20026;-44
2024/02/13 12:07:16;;;;;;;1.63;0.50;;;20.10;90.80;;;;;;5012892;28;20491;-44
2024/02/13 12:09:44;;;;;;;3.50;0.65;;;20.00;90.80;;;;;;5012093;28;20025;-45
2024/02/13 12:12:12;;;;;;;2.40;0.68;;;20.00;90.80;;;;;;5012044;28;20045;-45
2024/02/13 12:14:39;;;;;;;1.50;0.68;;;20.00;90.80;;;;;;5012398;28;20104;-43
2024/02/13 12:17:09;;;;;;;0.90;0.40;;;20.00;90.80;;;;;;5012413;28;20428;-44
2024/02/13 12:19:36;;;;;;;1.30;0.63;;;20.00;90.80;;;;;;5013387;28;20029;-43
2024/02/13 12:22:09;;;;;;;1.50;0.55;;;20.00;90.80;;;;;;5012088;28;20538;-44
2024/02/13 12:24:41;;;;;;;1.48;0.70;;;20.00;90.80;;;;;;5011783;28;20040;-44
2024/02/13 12:27:12;;;;;;;0.82;0.60;;;20.00;90.80;;;;;;5012139;28;20029;-47
2024/02/13 12:29:39;;;;;;;0.80;0.50;;;20.00;90.80;;;;;;5012348;28;20033;-44
2024/02/13 12:32:09;;;;;;;1.17;0.57;;;20.00;90.70;;;;;;5012303;28;20068;-45
2024/02/13 12:34:38;;;;;;;0.63;0.40;;;20.00;90.70;;;;;;5011775;28;20026;-44
2024/02/13 12:37:08;;;;;;;0.95;0.40;;;20.10;90.70;;;;;;5011790;28;20080;-44
2024/02/13 12:39:36;;;;;;;1.38;0.63;;;20.20;90.60;;;;;;5012024;28;20094;-45
2024/02/13 12:42:05;;;;;;;0.75;0.50;;;20.20;90.50;;;;;;5011932;28;20061;-45
2024/02/13 12:44:33;;;;;;;0.70;0.45;;;20.30;90.50;;;;;;5011693;28;20026;-43
2024/02/13 12:46:58;;;;;;;0.68;0.40;;;20.30;90.40;;;;;;5011639;28;20108;-44
2024/02/13 12:49:26;;;;;;;1.20;0.50;;;20.40;90.40;;;;;;5012132;28;20595;-45
2024/02/13 12:51:52;;;;;;;0.93;0.50;;;20.40;90.30;;;;;;5011544;28;20022;-45